Time;durP1;ratioP1;P1;durP2;ratioP2;P2;SDS_P1;SDS_P2;PMS_P1;PMS_P2;Temp;Humidity;BMP_temperature;BMP_pressure;BME280_temperature;BME280_humidity;BME280_pressure;Samples;Min_cycle;Max_cycle;Signal;HPM_P1;HPM_P2
2022/04/29 00:00:57;;;;;;;;;;;22.20;32.10;;;;;;473866;251;1195;-78
2022/04/29 00:02:58;;;;;;;;;;;22.20;32.10;;;;;;473868;251;1072;-78
2022/04/29 00:05:00;;;;;;;;;;;22.20;32.00;;;;;;473865;251;1130;-78
2022/04/29 00:07:01;;;;;;;;;;;22.20;32.10;;;;;;473760;251;1123;-78
2022/04/29 00:09:02;;;;;;;;;;;22.00;32.20;;;;;;473879;251;2201;-78
2022/04/29 00:11:05;;;;;;;;;;;22.00;32.20;;;;;;473870;251;1314;-79
2022/04/29 00:13:05;;;;;;;;;;;22.10;32.20;;;;;;473841;251;1661;-78
2022/04/29 00:15:06;;;;;;;;;;;22.00;32.30;;;;;;473846;251;955;-78
2022/04/29 00:17:09;;;;;;;;;;;22.10;32.30;;;;;;473832;251;1109;-78
2022/04/29 00:19:09;;;;;;;;;;;22.00;32.30;;;;;;473837;251;1478;-78
2022/04/29 00:21:11;;;;;;;;;;;22.10;32.20;;;;;;473781;251;1306;-78
2022/04/29 00:23:12;;;;;;;;;;;22.00;32.20;;;;;;473879;251;1057;-78
2022/04/29 00:25:13;;;;;;;;;;;21.90;32.30;;;;;;473796;251;958;-78
2022/04/29 00:27:14;;;;;;;;;;;21.90;32.40;;;;;;473780;251;1101;-78
2022/04/29 00:29:16;;;;;;;;;;;21.90;32.40;;;;;;473901;251;990;-78
2022/04/29 00:31:17;;;;;;;;;;;21.80;32.50;;;;;;473903;251;1150;-78
2022/04/29 00:33:19;;;;;;;;;;;21.70;32.60;;;;;;473948;251;1046;-78
2022/04/29 00:35:20;;;;;;;;;;;21.70;32.60;;;;;;473930;251;1176;-78
2022/04/29 00:37:21;;;;;;;;;;;21.60;32.70;;;;;;473951;251;1084;-78
2022/04/29 00:39:23;;;;;;;;;;;21.60;32.80;;;;;;474174;251;1315;-79
2022/04/29 00:41:25;;;;;;;;;;;21.60;32.90;;;;;;473951;251;1212;-78
2022/04/29 00:43:26;;;;;;;;;;;21.60;32.80;;;;;;474090;251;1093;-78
2022/04/29 00:45:27;;;;;;;;;;;21.50;32.80;;;;;;473918;251;1098;-78
2022/04/29 00:47:29;;;;;;;;;;;21.50;32.80;;;;;;473970;251;2196;-78
2022/04/29 00:49:30;;;;;;;;;;;21.50;32.90;;;;;;473926;251;969;-78
2022/04/29 00:51:31;;;;;;;;;;;21.50;33.00;;;;;;473885;251;1292;-78
2022/04/29 00:53:33;;;;;;;;;;;21.50;33.00;;;;;;474127;251;1151;-78
2022/04/29 00:55:34;;;;;;;;;;;21.60;33.00;;;;;;473925;251;1253;-78
2022/04/29 00:57:35;;;;;;;;;;;21.50;33.00;;;;;;473837;251;1084;-79
2022/04/29 00:59:37;;;;;;;;;;;21.50;33.00;;;;;;473838;251;1124;-78
2022/04/29 01:01:38;;;;;;;;;;;21.50;33.00;;;;;;473929;251;1249;-78
2022/04/29 01:03:39;;;;;;;;;;;21.40;32.90;;;;;;473915;251;1136;-78
2022/04/29 01:05:41;;;;;;;;;;;21.50;33.00;;;;;;473886;251;1154;-78
2022/04/29 01:07:42;;;;;;;;;;;21.40;33.00;;;;;;473906;251;2150;-78
2022/04/29 01:09:43;;;;;;;;;;;21.40;33.10;;;;;;473936;251;978;-78
2022/04/29 01:11:45;;;;;;;;;;;21.40;33.10;;;;;;473981;251;1218;-78
2022/04/29 01:13:46;;;;;;;;;;;21.40;33.10;;;;;;473929;251;1121;-79
2022/04/29 01:15:50;;;;;;;;;;;21.40;33.10;;;;;;473838;251;1227;-78
2022/04/29 01:17:49;;;;;;;;;;;21.50;33.00;;;;;;474039;251;1341;-78
2022/04/29 01:19:50;;;;;;;;;;;21.30;33.00;;;;;;473911;251;975;-78
2022/04/29 01:21:52;;;;;;;;;;;21.40;33.00;;;;;;473803;251;1212;-78
2022/04/29 01:23:53;;;;;;;;;;;21.50;32.90;;;;;;473933;251;1099;-78
2022/04/29 01:25:54;;;;;;;;;;;21.40;32.90;;;;;;473928;251;1260;-78
2022/04/29 01:27:55;;;;;;;;;;;21.40;32.90;;;;;;473879;251;2183;-78
2022/04/29 01:29:57;;;;;;;;;;;21.50;33.00;;;;;;473924;251;1018;-78
2022/04/29 01:31:58;;;;;;;;;;;21.50;32.90;;;;;;473993;251;1185;-78
2022/04/29 01:33:59;;;;;;;;;;;21.50;32.90;;;;;;473929;251;1066;-78
2022/04/29 01:36:01;;;;;;;;;;;21.50;32.90;;;;;;473784;249;1196;-78
2022/04/29 01:38:02;;;;;;;;;;;21.40;32.90;;;;;;473826;251;1139;-78
2022/04/29 01:40:03;;;;;;;;;;;21.40;32.90;;;;;;473909;251;963;-78
2022/04/29 01:42:05;;;;;;;;;;;21.40;32.90;;;;;;473847;251;1169;-79
2022/04/29 01:44:06;;;;;;;;;;;21.40;32.90;;;;;;473898;251;975;-78
2022/04/29 01:46:07;;;;;;;;;;;21.50;32.90;;;;;;473815;251;1246;-78
2022/04/29 01:48:09;;;;;;;;;;;21.50;32.80;;;;;;473909;251;2192;-78
2022/04/29 01:50:10;;;;;;;;;;;21.50;32.80;;;;;;473865;251;1023;-78
2022/04/29 01:52:11;;;;;;;;;;;21.40;32.80;;;;;;473839;251;1219;-78
2022/04/29 01:54:13;;;;;;;;;;;21.50;32.80;;;;;;473884;251;980;-78
2022/04/29 01:56:14;;;;;;;;;;;21.50;32.80;;;;;;473891;251;1284;-78
2022/04/29 01:58:15;;;;;;;;;;;21.40;32.80;;;;;;473832;251;1001;-78
2022/04/29 02:00:17;;;;;;;;;;;21.30;32.90;;;;;;473887;251;982;-78
2022/04/29 02:02:21;;;;;;;;;;;21.40;33.00;;;;;;473980;251;1186;-78
2022/04/29 02:04:19;;;;;;;;;;;21.30;33.00;;;;;;474141;251;1494;-78
2022/04/29 02:06:21;;;;;;;;;;;21.40;32.90;;;;;;473880;251;1191;-78
2022/04/29 02:08:22;;;;;;;;;;;21.30;32.90;;;;;;473915;251;2197;-79
2022/04/29 02:10:23;;;;;;;;;;;21.40;33.00;;;;;;473867;251;961;-78
2022/04/29 02:12:25;;;;;;;;;;;21.40;32.90;;;;;;473794;251;1165;-78
2022/04/29 02:14:26;;;;;;;;;;;21.30;32.80;;;;;;473744;251;1156;-78
2022/04/29 02:16:27;;;;;;;;;;;21.30;32.80;;;;;;473847;249;1331;-78
2022/04/29 02:18:29;;;;;;;;;;;21.40;32.90;;;;;;473946;251;1281;-78
2022/04/29 02:20:30;;;;;;;;;;;21.40;32.80;;;;;;473855;251;1234;-78
2022/04/29 02:22:31;;;;;;;;;;;21.40;32.80;;;;;;473948;251;1195;-78
2022/04/29 02:24:33;;;;;;;;;;;21.30;32.90;;;;;;473923;251;1072;-78
2022/04/29 02:26:34;;;;;;;;;;;21.20;33.00;;;;;;473795;251;1243;-78
2022/04/29 02:28:35;;;;;;;;;;;21.30;33.10;;;;;;474062;251;2193;-78
2022/04/29 02:30:37;;;;;;;;;;;21.30;33.00;;;;;;473882;251;1311;-78
2022/04/29 02:32:38;;;;;;;;;;;21.40;32.90;;;;;;473816;251;1172;-78
2022/04/29 02:34:41;;;;;;;;;;;21.40;32.70;;;;;;473939;251;955;-78
2022/04/29 02:36:41;;;;;;;;;;;21.50;32.70;;;;;;473872;251;1486;-78
2022/04/29 02:38:44;;;;;;;;;;;21.60;32.40;;;;;;473942;251;973;-78
2022/04/29 02:40:43;;;;;;;;;;;21.70;32.30;;;;;;473882;249;1251;-78
2022/04/29 02:42:45;;;;;;;;;;;21.70;32.20;;;;;;473917;251;1163;-80
2022/04/29 02:44:46;;;;;;;;;;;21.80;32.20;;;;;;473939;251;994;-78
2022/04/29 02:49:06;;;;;;;;;;;21.80;32.20;;;;;;473990;250;2125;-78
2022/04/29 02:51:08;;;;;;;;;;;21.70;32.20;;;;;;473812;251;1200;-78
2022/04/29 02:53:09;;;;;;;;;;;21.80;32.20;;;;;;473948;251;1216;-78
2022/04/29 02:55:11;;;;;;;;;;;21.80;32.00;;;;;;473886;251;1107;-78
2022/04/29 02:57:12;;;;;;;;;;;21.90;31.90;;;;;;473860;251;1219;-78
2022/04/29 02:59:13;;;;;;;;;;;21.90;31.80;;;;;;473842;251;1133;-78
2022/04/29 03:01:15;;;;;;;;;;;21.90;31.80;;;;;;473914;251;1267;-78
2022/04/29 03:03:16;;;;;;;;;;;22.00;31.60;;;;;;473884;251;1321;-79
2022/04/29 03:05:17;;;;;;;;;;;21.90;31.70;;;;;;473938;251;1033;-78
2022/04/29 03:07:19;;;;;;;;;;;22.00;31.70;;;;;;473796;251;1124;-78
2022/04/29 03:09:20;;;;;;;;;;;22.00;31.60;;;;;;473942;251;2200;-78
2022/04/29 03:11:21;;;;;;;;;;;22.00;31.60;;;;;;473958;251;1214;-78
2022/04/29 03:13:23;;;;;;;;;;;22.00;31.70;;;;;;473908;251;1061;-78
2022/04/29 03:15:25;;;;;;;;;;;22.00;31.60;;;;;;473909;251;1213;-78
2022/04/29 03:19:45;;;;;;;;;;;22.20;31.40;;;;;;473913;250;1137;-78
2022/04/29 03:21:47;;;;;;;;;;;22.10;31.50;;;;;;473816;251;1137;-78
2022/04/29 03:23:48;;;;;;;;;;;22.10;31.40;;;;;;474167;251;1119;-78
2022/04/29 03:25:49;;;;;;;;;;;22.10;31.40;;;;;;473984;251;1316;-78
2022/04/29 03:27:50;;;;;;;;;;;22.10;31.30;;;;;;473859;251;1581;-78
2022/04/29 03:29:52;;;;;;;;;;;22.20;31.40;;;;;;473899;251;2208;-78
2022/04/29 03:31:53;;;;;;;;;;;22.20;31.40;;;;;;473807;251;1106;-78
2022/04/29 03:33:54;;;;;;;;;;;22.10;31.40;;;;;;473851;251;1225;-78
2022/04/29 03:35:56;;;;;;;;;;;22.10;31.50;;;;;;473844;251;1248;-78
2022/04/29 03:37:57;;;;;;;;;;;22.10;31.40;;;;;;474001;251;1115;-78
2022/04/29 03:39:59;;;;;;;;;;;22.10;31.30;;;;;;473875;245;1221;-78
2022/04/29 03:42:00;;;;;;;;;;;22.10;31.40;;;;;;473850;251;1212;-78
2022/04/29 03:44:01;;;;;;;;;;;22.20;31.30;;;;;;473911;251;1063;-78
2022/04/29 03:46:03;;;;;;;;;;;22.10;31.30;;;;;;473819;251;1285;-79
2022/04/29 03:48:04;;;;;;;;;;;22.20;31.30;;;;;;473963;251;1027;-78
2022/04/29 03:50:05;;;;;;;;;;;22.20;31.20;;;;;;473879;251;2193;-78
2022/04/29 03:52:07;;;;;;;;;;;22.30;31.10;;;;;;473809;249;1451;-78
2022/04/29 03:54:08;;;;;;;;;;;22.20;31.10;;;;;;473889;251;1011;-78
2022/04/29 03:56:09;;;;;;;;;;;22.20;31.20;;;;;;473857;251;1256;-78
2022/04/29 03:58:11;;;;;;;;;;;22.30;31.10;;;;;;473902;251;981;-78
2022/04/29 04:00:13;;;;;;;;;;;22.30;31.00;;;;;;473882;251;962;-78
2022/04/29 04:02:14;;;;;;;;;;;22.30;31.00;;;;;;473897;251;1214;-79
2022/04/29 04:04:15;;;;;;;;;;;22.10;31.10;;;;;;473975;251;1014;-78
2022/04/29 04:08:36;;;;;;;;;;;22.20;31.00;;;;;;474052;250;2165;-78
2022/04/29 04:10:37;;;;;;;;;;;22.20;31.00;;;;;;474014;251;1034;-79
2022/04/29 04:12:38;;;;;;;;;;;22.20;31.00;;;;;;474026;251;1061;-78
2022/04/29 04:14:40;;;;;;;;;;;22.30;31.00;;;;;;474017;251;992;-78
2022/04/29 04:16:41;;;;;;;;;;;22.30;31.00;;;;;;474001;251;1233;-78
2022/04/29 04:18:42;;;;;;;;;;;22.20;31.00;;;;;;474020;251;1436;-78
2022/04/29 04:20:44;;;;;;;;;;;22.40;30.90;;;;;;474019;251;968;-78
2022/04/29 04:22:45;;;;;;;;;;;22.30;30.80;;;;;;474054;250;1198;-78
2022/04/29 04:24:46;;;;;;;;;;;22.30;30.90;;;;;;474111;251;1124;-78
2022/04/29 04:26:47;;;;;;;;;;;22.30;31.00;;;;;;473899;251;1217;-78
2022/04/29 04:28:49;;;;;;;;;;;22.20;31.00;;;;;;473954;251;2188;-78
2022/04/29 04:30:50;;;;;;;;;;;22.20;31.00;;;;;;473986;251;1260;-78
2022/04/29 04:32:51;;;;;;;;;;;22.20;31.00;;;;;;473972;251;1070;-78
2022/04/29 04:34:53;;;;;;;;;;;22.20;31.10;;;;;;474000;251;1085;-78
2022/04/29 04:36:54;;;;;;;;;;;22.20;31.00;;;;;;474105;251;1220;-78
2022/04/29 04:38:56;;;;;;;;;;;22.20;31.00;;;;;;473960;251;1170;-78
2022/04/29 04:40:58;;;;;;;;;;;22.30;31.00;;;;;;474029;251;1164;-78
2022/04/29 04:42:58;;;;;;;;;;;22.30;30.90;;;;;;473923;251;1420;-78
2022/04/29 04:45:00;;;;;;;;;;;22.30;31.00;;;;;;474035;251;1040;-78
2022/04/29 04:47:01;;;;;;;;;;;22.30;31.00;;;;;;474018;251;1356;-78
2022/04/29 04:49:02;;;;;;;;;;;22.20;31.00;;;;;;473973;251;2209;-79
2022/04/29 04:51:04;;;;;;;;;;;22.10;31.10;;;;;;473923;251;1158;-78
2022/04/29 04:53:05;;;;;;;;;;;22.10;31.20;;;;;;473938;251;1150;-78
2022/04/29 04:55:06;;;;;;;;;;;22.10;31.10;;;;;;473965;251;1190;-78
2022/04/29 04:57:07;;;;;;;;;;;22.20;31.10;;;;;;473944;251;1244;-78
2022/04/29 04:59:09;;;;;;;;;;;22.20;31.10;;;;;;473908;251;1051;-79
2022/04/29 05:01:10;;;;;;;;;;;22.10;31.10;;;;;;473896;251;1258;-78
2022/04/29 05:03:11;;;;;;;;;;;22.10;31.20;;;;;;473875;251;1085;-78
2022/04/29 05:05:13;;;;;;;;;;;22.00;31.30;;;;;;473953;251;1252;-79
2022/04/29 05:07:14;;;;;;;;;;;22.00;31.30;;;;;;473935;251;1164;-79
2022/04/29 05:09:15;;;;;;;;;;;22.00;31.30;;;;;;473951;251;2220;-78
2022/04/29 05:11:17;;;;;;;;;;;22.00;31.40;;;;;;473889;251;1435;-78
2022/04/29 05:13:18;;;;;;;;;;;22.00;31.40;;;;;;474000;251;1105;-78
2022/04/29 05:15:19;;;;;;;;;;;22.00;31.40;;;;;;473905;251;990;-78
2022/04/29 05:17:21;;;;;;;;;;;22.00;31.50;;;;;;473865;251;1128;-78
2022/04/29 05:19:22;;;;;;;;;;;22.00;31.50;;;;;;473896;251;1026;-78
2022/04/29 05:21:23;;;;;;;;;;;22.10;31.50;;;;;;473887;248;1234;-78
2022/04/29 05:23:25;;;;;;;;;;;22.10;31.50;;;;;;473905;251;1171;-78
2022/04/29 05:25:26;;;;;;;;;;;22.10;31.60;;;;;;473961;251;1051;-78
2022/04/29 05:27:27;;;;;;;;;;;22.20;31.60;;;;;;473901;248;1191;-78
2022/04/29 05:29:29;;;;;;;;;;;22.10;31.60;;;;;;473934;251;2126;-78
2022/04/29 05:31:30;;;;;;;;;;;22.00;31.80;;;;;;473820;249;1201;-78
2022/04/29 05:33:31;;;;;;;;;;;22.00;31.90;;;;;;473887;251;1112;-78
2022/04/29 05:35:32;;;;;;;;;;;21.90;32.00;;;;;;473885;251;1176;-78
2022/04/29 05:37:34;;;;;;;;;;;21.90;32.10;;;;;;473781;251;1107;-78
2022/04/29 05:44:14;;;;;;;;;;;22.10;31.80;;;;;;473610;251;976;-78
2022/04/29 05:46:16;;;;;;;;;;;22.10;31.90;;;;;;473817;251;1325;-77
2022/04/29 05:48:17;;;;;;;;;;;22.00;32.00;;;;;;473802;251;1111;-78
2022/04/29 05:50:18;;;;;;;;;;;22.10;32.00;;;;;;474018;251;2192;-78
2022/04/29 05:52:20;;;;;;;;;;;22.10;32.00;;;;;;473810;251;1109;-78
2022/04/29 05:54:21;;;;;;;;;;;22.10;32.00;;;;;;473871;251;1235;-78
2022/04/29 05:56:22;;;;;;;;;;;22.10;32.00;;;;;;473738;251;1235;-78
2022/04/29 05:58:23;;;;;;;;;;;22.10;32.10;;;;;;473779;251;1216;-78
2022/04/29 06:00:25;;;;;;;;;;;22.10;32.20;;;;;;473778;251;1056;-78
2022/04/29 06:02:26;;;;;;;;;;;22.10;32.10;;;;;;473831;250;1157;-78
2022/04/29 06:04:27;;;;;;;;;;;22.10;32.20;;;;;;473804;251;1096;-78
2022/04/29 06:06:29;;;;;;;;;;;22.10;32.10;;;;;;473733;251;1134;-78
2022/04/29 06:08:30;;;;;;;;;;;22.10;32.20;;;;;;473797;251;1131;-78
2022/04/29 06:10:31;;;;;;;;;;;22.00;32.30;;;;;;473735;251;2193;-78
2022/04/29 06:12:33;;;;;;;;;;;22.10;32.20;;;;;;473944;251;1169;-78
2022/04/29 06:14:34;;;;;;;;;;;22.10;32.20;;;;;;473748;251;1239;-78
2022/04/29 06:16:35;;;;;;;;;;;22.10;32.20;;;;;;473807;251;1223;-78
2022/04/29 06:18:37;;;;;;;;;;;22.20;32.20;;;;;;473849;251;1064;-78
2022/04/29 06:20:38;;;;;;;;;;;22.10;32.30;;;;;;473901;251;1150;-78
2022/04/29 06:22:39;;;;;;;;;;;22.10;32.40;;;;;;473891;251;1163;-78
2022/04/29 06:24:41;;;;;;;;;;;22.10;32.40;;;;;;473819;251;1236;-78
2022/04/29 06:26:42;;;;;;;;;;;22.00;32.50;;;;;;473782;251;1233;-78
2022/04/29 06:28:43;;;;;;;;;;;22.00;32.60;;;;;;473841;251;1088;-78
2022/04/29 06:30:45;;;;;;;;;;;22.00;32.60;;;;;;473698;251;2218;-78
2022/04/29 06:32:46;;;;;;;;;;;22.10;32.50;;;;;;473772;251;1141;-77
2022/04/29 06:34:49;;;;;;;;;;;22.10;32.50;;;;;;473732;251;980;-78
2022/04/29 06:36:49;;;;;;;;;;;22.20;32.50;;;;;;473742;251;1148;-78
2022/04/29 06:38:51;;;;;;;;;;;22.20;32.50;;;;;;473789;251;1389;-78
2022/04/29 06:40:52;;;;;;;;;;;22.20;32.40;;;;;;473614;251;1243;-78
2022/04/29 06:42:54;;;;;;;;;;;22.20;32.40;;;;;;473669;251;1162;-78
2022/04/29 06:44:55;;;;;;;;;;;22.20;32.60;;;;;;473631;251;1082;-78
2022/04/29 06:46:56;;;;;;;;;;;22.20;32.60;;;;;;473734;251;1125;-78
2022/04/29 06:48:58;;;;;;;;;;;22.20;32.50;;;;;;473736;251;1086;-78
2022/04/29 06:50:59;;;;;;;;;;;22.30;32.50;;;;;;473753;251;2193;-78
2022/04/29 06:53:00;;;;;;;;;;;22.20;32.80;;;;;;473645;251;1161;-78
2022/04/29 06:55:02;;;;;;;;;;;22.20;32.70;;;;;;473668;251;1179;-78
2022/04/29 06:57:03;;;;;;;;;;;22.20;32.90;;;;;;473738;251;1257;-78
2022/04/29 06:59:04;;;;;;;;;;;22.20;32.90;;;;;;473610;251;1036;-78
2022/04/29 07:01:06;;;;;;;;;;;22.30;32.90;;;;;;473473;251;1245;-78
2022/04/29 07:03:08;;;;;;;;;;;22.30;32.90;;;;;;473773;251;1072;-78
2022/04/29 07:05:09;;;;;;;;;;;22.40;33.00;;;;;;473700;251;1122;-78
2022/04/29 07:07:11;;;;;;;;;;;22.40;33.00;;;;;;473476;251;1179;-78
2022/04/29 07:09:12;;;;;;;;;;;22.30;33.00;;;;;;473094;251;1215;-78
2022/04/29 07:11:13;;;;;;;;;;;22.40;33.00;;;;;;473340;249;2169;-78
2022/04/29 07:13:15;;;;;;;;;;;22.40;33.20;;;;;;473584;251;1007;-78
2022/04/29 07:15:16;;;;;;;;;;;22.30;33.20;;;;;;473257;251;1079;-78
2022/04/29 07:17:18;;;;;;;;;;;22.30;33.40;;;;;;473258;251;1201;-78
2022/04/29 07:19:19;;;;;;;;;;;22.30;33.30;;;;;;473245;251;1526;-78
2022/04/29 07:21:20;;;;;;;;;;;22.30;33.30;;;;;;473477;251;1146;-78
2022/04/29 07:23:22;;;;;;;;;;;22.20;33.40;;;;;;473494;251;1071;-78
2022/04/29 07:25:23;;;;;;;;;;;22.30;33.50;;;;;;473534;251;1310;-78
2022/04/29 07:27:24;;;;;;;;;;;22.30;33.40;;;;;;473242;251;1139;-78
2022/04/29 07:29:25;;;;;;;;;;;22.40;33.40;;;;;;473278;251;1172;-78
2022/04/29 07:31:27;;;;;;;;;;;22.40;33.40;;;;;;473282;251;2197;-78
2022/04/29 07:33:28;;;;;;;;;;;22.40;33.30;;;;;;473314;251;1051;-78
2022/04/29 07:42:27;;;;;;;;;;;22.40;33.50;;;;;;473302;250;1191;-78
2022/04/29 07:44:29;;;;;;;;;;;22.40;33.60;;;;;;473391;251;1036;-78
2022/04/29 07:46:30;;;;;;;;;;;22.40;33.60;;;;;;473162;251;1136;-78
2022/04/29 07:48:31;;;;;;;;;;;22.30;33.70;;;;;;473172;251;1059;-78
2022/04/29 07:50:33;;;;;;;;;;;22.30;33.80;;;;;;473260;251;2197;-78
2022/04/29 07:52:34;;;;;;;;;;;22.30;33.60;;;;;;473256;251;1109;-78
2022/04/29 07:54:35;;;;;;;;;;;22.40;33.60;;;;;;473351;251;1103;-78
2022/04/29 07:56:37;;;;;;;;;;;22.50;33.50;;;;;;472987;251;1334;-78
2022/04/29 07:58:38;;;;;;;;;;;22.50;33.50;;;;;;473145;251;1040;-78
2022/04/29 08:00:40;;;;;;;;;;;22.50;33.30;;;;;;473221;251;1034;-78
2022/04/29 08:02:41;;;;;;;;;;;22.50;33.30;;;;;;473327;251;1238;-78
2022/04/29 08:04:42;;;;;;;;;;;22.50;33.40;;;;;;473355;251;1117;-79
2022/04/29 08:06:44;;;;;;;;;;;22.50;33.50;;;;;;473110;251;1062;-78
2022/04/29 08:08:45;;;;;;;;;;;22.50;33.40;;;;;;473125;251;1039;-78
2022/04/29 08:10:46;;;;;;;;;;;22.50;33.40;;;;;;473105;251;2170;-78
2022/04/29 08:12:48;;;;;;;;;;;22.50;33.30;;;;;;473191;251;1028;-78
2022/04/29 08:14:49;;;;;;;;;;;22.50;33.40;;;;;;473222;251;1049;-78
2022/04/29 08:16:50;;;;;;;;;;;22.50;33.30;;;;;;473404;251;1353;-78
2022/04/29 08:18:52;;;;;;;;;;;22.60;33.10;;;;;;473224;251;1029;-78
2022/04/29 08:20:54;;;;;;;;;;;22.70;33.00;;;;;;473238;251;1006;-78
2022/04/29 08:22:55;;;;;;;;;;;22.60;33.00;;;;;;473215;251;1079;-78
2022/04/29 08:24:56;;;;;;;;;;;22.60;33.10;;;;;;473346;251;1347;-78
2022/04/29 08:26:58;;;;;;;;;;;22.60;33.10;;;;;;473278;251;1120;-78
2022/04/29 08:28:59;;;;;;;;;;;22.60;33.20;;;;;;473323;251;1064;-78
2022/04/29 08:31:00;;;;;;;;;;;22.50;33.20;;;;;;473269;251;2182;-78
2022/04/29 08:33:02;;;;;;;;;;;22.50;33.00;;;;;;473395;251;1014;-79
2022/04/29 08:35:03;;;;;;;;;;;22.50;33.00;;;;;;473330;251;1064;-78
2022/04/29 08:37:05;;;;;;;;;;;22.50;32.90;;;;;;473240;251;1186;-79
2022/04/29 08:39:06;;;;;;;;;;;22.50;32.70;;;;;;473299;251;1090;-78
2022/04/29 08:41:07;;;;;;;;;;;22.50;32.50;;;;;;473190;251;1209;-78
2022/04/29 08:43:08;;;;;;;;;;;22.60;32.40;;;;;;473311;251;1062;-78
2022/04/29 08:45:10;;;;;;;;;;;22.60;32.30;;;;;;473246;251;1089;-79
2022/04/29 08:47:12;;;;;;;;;;;22.60;32.10;;;;;;473190;251;1216;-78
2022/04/29 08:49:12;;;;;;;;;;;22.60;32.10;;;;;;473300;251;1092;-78
2022/04/29 08:51:14;;;;;;;;;;;22.70;32.00;;;;;;473260;251;2181;-78
2022/04/29 08:53:15;;;;;;;;;;;22.60;32.00;;;;;;473197;251;1078;-78
2022/04/29 08:59:55;;;;;;;;;;;22.60;32.00;;;;;;473237;251;1056;-78
2022/04/29 09:01:57;;;;;;;;;;;22.60;32.00;;;;;;473447;251;1153;-78
2022/04/29 09:03:58;;;;;;;;;;;22.70;31.90;;;;;;473975;251;867;-78
2022/04/29 09:05:59;;;;;;;;;;;22.60;31.90;;;;;;473517;251;1424;-78
2022/04/29 09:08:01;;;;;;;;;;;22.60;31.90;;;;;;473532;251;1149;-78
2022/04/29 09:10:02;;;;;;;;;;;22.70;31.90;;;;;;473330;251;1151;-78
2022/04/29 09:12:04;;;;;;;;;;;22.70;31.80;;;;;;473305;251;2224;-78
2022/04/29 09:14:05;;;;;;;;;;;22.70;31.70;;;;;;473516;251;1540;-78
2022/04/29 09:16:06;;;;;;;;;;;22.70;31.60;;;;;;473279;248;1211;-78
2022/04/29 09:18:08;;;;;;;;;;;22.60;31.60;;;;;;473371;251;1084;-78
2022/04/29 09:20:09;;;;;;;;;;;22.70;31.60;;;;;;473325;251;984;-78
2022/04/29 09:22:12;;;;;;;;;;;22.60;31.60;;;;;;473378;251;1161;-78
2022/04/29 09:24:12;;;;;;;;;;;22.60;31.60;;;;;;473612;251;1367;-78
2022/04/29 09:26:13;;;;;;;;;;;22.50;31.60;;;;;;473443;251;1335;-78
2022/04/29 09:28:14;;;;;;;;;;;22.60;31.50;;;;;;473328;251;1099;-78
2022/04/29 09:30:15;;;;;;;;;;;22.60;31.50;;;;;;473381;251;1068;-78
2022/04/29 09:32:17;;;;;;;;;;;22.60;31.50;;;;;;473380;251;2189;-78
2022/04/29 09:34:18;;;;;;;;;;;22.60;31.40;;;;;;473382;251;1054;-78
2022/04/29 09:36:19;;;;;;;;;;;22.60;31.40;;;;;;473309;251;1192;-78
2022/04/29 09:40:40;;;;;;;;;;;22.60;31.30;;;;;;473333;251;1132;-78
2022/04/29 09:42:42;;;;;;;;;;;22.70;31.30;;;;;;473393;251;1283;-78
2022/04/29 09:44:43;;;;;;;;;;;22.70;31.30;;;;;;473146;251;1037;-79
2022/04/29 09:46:44;;;;;;;;;;;22.60;31.30;;;;;;473097;251;1303;-78
2022/04/29 09:48:46;;;;;;;;;;;22.60;31.30;;;;;;473164;251;1095;-78
2022/04/29 09:50:47;;;;;;;;;;;22.60;31.30;;;;;;473228;251;2193;-78
2022/04/29 09:52:49;;;;;;;;;;;22.60;31.30;;;;;;473125;251;1213;-78
2022/04/29 09:54:49;;;;;;;;;;;22.50;31.30;;;;;;473400;251;1421;-78
2022/04/29 09:56:51;;;;;;;;;;;22.50;31.40;;;;;;473170;251;1225;-78
2022/04/29 09:58:52;;;;;;;;;;;22.40;31.40;;;;;;473064;251;984;-78
2022/04/29 10:00:53;;;;;;;;;;;22.30;31.50;;;;;;473020;251;1192;-78
2022/04/29 10:02:55;;;;;;;;;;;22.20;31.60;;;;;;473367;251;1148;-78
2022/04/29 10:04:56;;;;;;;;;;;22.20;31.70;;;;;;473100;251;1414;-78
2022/04/29 10:06:57;;;;;;;;;;;22.20;31.70;;;;;;473255;251;1110;-79
2022/04/29 10:08:59;;;;;;;;;;;22.30;31.70;;;;;;473303;251;1079;-79
2022/04/29 10:11:00;;;;;;;;;;;22.30;31.60;;;;;;473268;251;2204;-78
2022/04/29 10:13:01;;;;;;;;;;;22.40;31.40;;;;;;473419;251;1089;-78
2022/04/29 10:15:05;;;;;;;;;;;22.40;31.40;;;;;;473439;251;1077;-79
2022/04/29 10:21:44;;;;;;;;;;;22.30;31.30;;;;;;473335;251;1356;-78
2022/04/29 10:23:49;;;;;;;;;;;22.30;31.40;;;;;;473420;251;1043;-79
2022/04/29 10:25:50;;;;;;;;;;;22.40;31.40;;;;;;473415;251;1116;-79
2022/04/29 10:27:51;;;;;;;;;;;22.30;31.40;;;;;;473618;251;1321;-78
2022/04/29 10:29:53;;;;;;;;;;;22.20;31.50;;;;;;473446;251;1024;-79
2022/04/29 10:31:54;;;;;;;;;;;22.30;31.40;;;;;;473418;251;2185;-79
2022/04/29 10:33:55;;;;;;;;;;;22.30;31.20;;;;;;473414;251;1060;-79
2022/04/29 10:35:57;;;;;;;;;;;22.30;31.30;;;;;;473152;249;1328;-78
2022/04/29 10:37:58;;;;;;;;;;;22.40;31.30;;;;;;473070;251;1161;-78
2022/04/29 10:39:59;;;;;;;;;;;22.30;31.30;;;;;;473121;251;1070;-79
2022/04/29 10:42:01;;;;;;;;;;;22.30;31.40;;;;;;473343;251;1189;-78
2022/04/29 10:44:03;;;;;;;;;;;22.30;31.40;;;;;;473593;251;1302;-78
2022/04/29 10:46:04;;;;;;;;;;;22.30;31.50;;;;;;473399;251;1210;-78
2022/04/29 10:48:05;;;;;;;;;;;22.20;31.50;;;;;;473348;251;1144;-78
2022/04/29 10:50:06;;;;;;;;;;;22.40;31.50;;;;;;473319;251;1059;-79
2022/04/29 10:52:08;;;;;;;;;;;22.30;31.50;;;;;;473277;251;2185;-78
2022/04/29 10:54:09;;;;;;;;;;;22.30;31.50;;;;;;473379;251;1120;-78
2022/04/29 10:56:10;;;;;;;;;;;22.40;31.40;;;;;;473265;249;1118;-79
2022/04/29 10:58:12;;;;;;;;;;;22.40;31.50;;;;;;473330;251;1216;-79
2022/04/29 11:00:13;;;;;;;;;;;22.20;31.50;;;;;;473323;251;1087;-79
2022/04/29 11:02:14;;;;;;;;;;;22.30;31.70;;;;;;473557;251;1242;-78
2022/04/29 11:04:16;;;;;;;;;;;22.30;31.60;;;;;;473456;251;1075;-79
2022/04/29 11:06:17;;;;;;;;;;;22.30;31.60;;;;;;473541;247;1209;-79
2022/04/29 11:08:18;;;;;;;;;;;22.40;31.60;;;;;;473348;251;1016;-79
2022/04/29 11:10:20;;;;;;;;;;;22.30;31.60;;;;;;473313;251;1034;-79
2022/04/29 11:12:21;;;;;;;;;;;22.40;31.50;;;;;;473579;251;2192;-79
2022/04/29 11:14:22;;;;;;;;;;;22.40;31.60;;;;;;473394;251;993;-79
2022/04/29 11:16:24;;;;;;;;;;;22.40;31.50;;;;;;473489;251;1203;-79
2022/04/29 11:18:26;;;;;;;;;;;22.40;31.50;;;;;;473964;251;1013;-79
2022/04/29 11:20:26;;;;;;;;;;;22.40;31.60;;;;;;473403;251;1500;-79
2022/04/29 11:25:00;;;;;;;;;;;22.30;31.70;;;;;;468916;251;1287;-78
2022/04/29 11:27:02;;;;;;;;;;;22.30;31.70;;;;;;473220;251;1121;-79
2022/04/29 11:29:03;;;;;;;;;;;22.40;31.60;;;;;;473383;251;1101;-78
2022/04/29 11:31:04;;;;;;;;;;;22.40;31.30;;;;;;473427;251;1320;-79
2022/04/29 11:33:06;;;;;;;;;;;22.60;31.30;;;;;;473307;251;2189;-79
2022/04/29 11:35:07;;;;;;;;;;;22.60;31.20;;;;;;473346;251;1037;-79
2022/04/29 11:37:08;;;;;;;;;;;22.80;31.00;;;;;;473431;251;1059;-78
2022/04/29 11:39:10;;;;;;;;;;;22.90;30.70;;;;;;473365;251;1157;-79
2022/04/29 11:41:11;;;;;;;;;;;23.00;30.50;;;;;;473312;251;1150;-79
2022/04/29 11:43:12;;;;;;;;;;;23.10;30.50;;;;;;473424;251;1163;-79
2022/04/29 11:45:14;;;;;;;;;;;23.20;30.30;;;;;;473270;251;1068;-79
2022/04/29 11:47:16;;;;;;;;;;;23.20;30.20;;;;;;473376;251;1221;-79
2022/04/29 11:49:18;;;;;;;;;;;23.30;30.20;;;;;;473344;251;1536;-78
2022/04/29 11:51:17;;;;;;;;;;;23.10;30.20;;;;;;473291;251;2189;-79
2022/04/29 11:53:19;;;;;;;;;;;23.10;30.20;;;;;;473318;251;1078;-78
2022/04/29 11:55:21;;;;;;;;;;;23.10;30.20;;;;;;473300;251;1116;-78
2022/04/29 11:57:21;;;;;;;;;;;23.10;30.10;;;;;;473473;251;1499;-78
2022/04/29 11:59:23;;;;;;;;;;;23.10;30.20;;;;;;473556;251;1070;-78
2022/04/29 12:01:24;;;;;;;;;;;22.90;30.30;;;;;;473444;251;1233;-79
2022/04/29 12:03:26;;;;;;;;;;;22.80;30.30;;;;;;473592;251;1281;-78
2022/04/29 12:05:27;;;;;;;;;;;22.80;30.20;;;;;;473613;251;1116;-78
2022/04/29 12:07:29;;;;;;;;;;;22.70;30.30;;;;;;473413;251;1333;-78
2022/04/29 12:09:30;;;;;;;;;;;22.70;30.20;;;;;;473300;251;1090;-79
2022/04/29 12:11:31;;;;;;;;;;;22.60;30.20;;;;;;473340;251;2173;-78
2022/04/29 12:13:34;;;;;;;;;;;22.60;30.40;;;;;;473490;251;1146;-78
2022/04/29 12:15:35;;;;;;;;;;;22.50;30.50;;;;;;473375;251;1400;-78
2022/04/29 12:17:35;;;;;;;;;;;22.50;30.40;;;;;;473557;251;1410;-78
2022/04/29 12:19:36;;;;;;;;;;;22.60;30.30;;;;;;473451;251;1052;-78
2022/04/29 12:21:38;;;;;;;;;;;22.40;30.50;;;;;;473412;251;1059;-78
2022/04/29 12:23:39;;;;;;;;;;;22.60;30.40;;;;;;473447;251;1045;-78
2022/04/29 12:25:42;;;;;;;;;;;22.50;30.60;;;;;;473445;251;1053;-78
2022/04/29 12:27:43;;;;;;;;;;;22.50;30.50;;;;;;473473;251;1342;-78
2022/04/29 12:34:48;;;;;;;;;;;22.50;30.40;;;;;;473383;251;1070;-79